Time;durP1;ratioP1;P1;durP2;ratioP2;P2;SDS_P1;SDS_P2;PMS_P1;PMS_P2;Temp;Humidity;BMP_temperature;BMP_pressure;BME280_temperature;BME280_humidity;BME280_pressure;Samples;Min_cycle;Max_cycle;Signal;HPM_P1;HPM_P2
2022/04/23 00:02:17;;;;;;;12.52;7.22;;;14.80;57.40;;;;;;5051844;28;20024;-63
2022/04/23 00:04:43;;;;;;;11.23;7.55;;;14.70;57.40;;;;;;5037218;28;20166;-64
2022/04/23 00:07:09;;;;;;;13.20;8.20;;;14.70;57.50;;;;;;5053782;28;20032;-63
2022/04/23 00:09:35;;;;;;;10.63;7.10;;;14.70;57.60;;;;;;5053572;28;20028;-63
2022/04/23 00:12:01;;;;;;;10.90;7.70;;;14.70;57.60;;;;;;5053274;28;20079;-63
2022/04/23 00:14:27;;;;;;;12.13;7.90;;;14.70;57.70;;;;;;5054768;28;20357;-63
2022/04/23 00:16:54;;;;;;;10.20;7.30;;;14.70;57.80;;;;;;5053707;28;20029;-63
2022/04/23 00:19:20;;;;;;;13.90;8.23;;;14.70;57.90;;;;;;5054471;28;20017;-63
2022/04/23 00:21:46;;;;;;;13.35;8.32;;;14.70;58.00;;;;;;5053579;28;20056;-64
2022/04/23 00:24:12;;;;;;;12.73;7.97;;;14.60;57.90;;;;;;5054184;28;20377;-63
2022/04/23 00:26:37;;;;;;;11.30;7.80;;;14.70;58.10;;;;;;5051382;28;20056;-64
2022/04/23 00:29:03;;;;;;;10.30;7.47;;;14.60;58.00;;;;;;5040374;28;20039;-64
2022/04/23 00:31:28;;;;;;;12.40;8.05;;;14.60;58.20;;;;;;5053221;28;20119;-64
2022/04/23 00:33:54;;;;;;;11.50;7.72;;;14.60;58.30;;;;;;5054227;28;20520;-64
2022/04/23 00:36:23;;;;;;;12.38;8.18;;;14.60;58.30;;;;;;5053397;28;20147;-64
2022/04/23 00:38:52;;;;;;;13.50;8.38;;;14.60;58.40;;;;;;5052275;28;20021;-64
2022/04/23 00:44:07;;;;;;;13.80;8.63;;;14.50;58.50;;;;;;5052748;28;20068;-63
2022/04/23 00:46:32;;;;;;;13.45;9.25;;;14.50;58.90;;;;;;5053290;28;20323;-64
2022/04/23 00:48:58;;;;;;;12.52;8.55;;;14.50;58.80;;;;;;5053222;28;20178;-63
2022/04/23 00:51:26;;;;;;;13.75;9.48;;;14.40;58.80;;;;;;5053432;28;20357;-64
2022/04/23 00:53:53;;;;;;;12.55;9.30;;;14.50;59.60;;;;;;5053045;28;20033;-64
2022/04/23 00:56:19;;;;;;;15.65;11.50;;;14.40;59.10;;;;;;5054169;28;20029;-63
2022/04/23 00:58:45;;;;;;;15.05;9.90;;;14.40;59.30;;;;;;5042004;28;20041;-64
2022/04/23 01:01:10;;;;;;;14.30;10.07;;;14.30;59.30;;;;;;5056651;28;20037;-64
2022/04/23 01:03:36;;;;;;;14.15;9.60;;;14.30;59.50;;;;;;5056922;28;20339;-63
2022/04/23 01:06:02;;;;;;;14.60;9.52;;;14.30;59.60;;;;;;5056232;28;20025;-63
2022/04/23 01:08:28;;;;;;;13.55;9.50;;;14.30;59.60;;;;;;5056003;28;20032;-63
2022/04/23 01:10:53;;;;;;;14.38;10.50;;;14.30;59.70;;;;;;5055526;28;20043;-63
2022/04/23 01:13:19;;;;;;;14.15;10.30;;;14.30;60.40;;;;;;5055813;28;20031;-63
2022/04/23 01:16:05;;;;;;;14.60;10.75;;;14.20;59.80;;;;;;5057913;28;20071;-63
2022/04/23 01:18:31;;;;;;;13.25;10.32;;;14.20;60.10;;;;;;5062443;28;20025;-63
2022/04/23 01:20:58;;;;;;;13.70;10.35;;;14.20;60.10;;;;;;5057149;28;20087;-63
2022/04/23 01:23:24;;;;;;;16.40;12.07;;;14.20;60.20;;;;;;5055599;28;20037;-64
2022/04/23 01:25:52;;;;;;;14.68;11.05;;;14.20;60.30;;;;;;5057797;28;20036;-64
2022/04/23 01:28:20;;;;;;;16.70;11.13;;;14.20;60.40;;;;;;5049511;28;20029;-63
2022/04/23 01:30:48;;;;;;;14.32;10.77;;;14.10;60.40;;;;;;5056897;28;20032;-63
2022/04/23 01:33:15;;;;;;;16.80;11.68;;;14.10;60.50;;;;;;5054997;28;20036;-63
2022/04/23 01:35:40;;;;;;;15.85;11.45;;;14.10;60.60;;;;;;5049443;28;20021;-64
2022/04/23 01:38:06;;;;;;;15.75;12.02;;;14.10;60.70;;;;;;5053331;28;20460;-63
2022/04/23 01:40:31;;;;;;;16.75;11.50;;;14.10;60.70;;;;;;5057119;28;20497;-64
2022/04/23 01:42:57;;;;;;;17.20;12.63;;;14.10;60.80;;;;;;5056097;28;20061;-63
2022/04/23 01:45:23;;;;;;;15.52;12.07;;;14.10;60.90;;;;;;5057295;28;20025;-64
2022/04/23 01:47:48;;;;;;;16.50;12.82;;;14.10;61.00;;;;;;5055145;28;20453;-63
2022/04/23 01:50:14;;;;;;;16.90;11.77;;;14.10;61.10;;;;;;5056038;28;20125;-63
2022/04/23 01:52:39;;;;;;;15.60;11.85;;;14.10;61.10;;;;;;5055804;28;20025;-63
2022/04/23 01:55:06;;;;;;;17.02;12.38;;;14.10;61.10;;;;;;5055363;28;20048;-64
2022/04/23 01:57:32;;;;;;;16.80;13.05;;;14.10;61.20;;;;;;5054045;28;20055;-63
2022/04/23 01:59:58;;;;;;;16.27;12.43;;;14.20;61.20;;;;;;5054371;28;20115;-63
2022/04/23 02:02:23;;;;;;;19.65;14.10;;;14.10;61.20;;;;;;5056441;28;20036;-63
2022/04/23 02:04:49;;;;;;;19.23;14.55;;;14.20;61.20;;;;;;5055166;28;20404;-63
2022/04/23 02:07:15;;;;;;;18.48;14.75;;;14.20;61.20;;;;;;5056467;28;20075;-63
2022/04/23 02:09:40;;;;;;;18.90;14.45;;;14.20;61.20;;;;;;5055244;28;20082;-63
2022/04/23 02:12:06;;;;;;;21.65;15.95;;;14.20;61.30;;;;;;5056668;28;20079;-64
2022/04/23 02:14:32;;;;;;;21.98;16.20;;;14.20;61.40;;;;;;5051931;28;20044;-63
2022/04/23 02:16:57;;;;;;;24.30;16.25;;;14.20;61.40;;;;;;5051649;28;20106;-63
2022/04/23 02:19:24;;;;;;;19.77;15.13;;;14.20;61.50;;;;;;5054519;28;20055;-63
2022/04/23 02:21:50;;;;;;;19.38;15.18;;;14.20;61.50;;;;;;5055461;28;20037;-63
2022/04/23 02:24:16;;;;;;;22.08;16.42;;;14.10;61.60;;;;;;5055306;28;20083;-63
2022/04/23 02:26:42;;;;;;;20.52;15.57;;;14.10;61.70;;;;;;5056564;28;20021;-63
2022/04/23 02:29:07;;;;;;;19.98;14.85;;;14.10;61.70;;;;;;5055540;28;20037;-63
2022/04/23 02:31:33;;;;;;;19.20;14.55;;;14.10;61.80;;;;;;5055280;28;20052;-63
2022/04/23 02:33:58;;;;;;;23.85;16.67;;;14.10;61.90;;;;;;5054459;28;20068;-64
2022/04/23 02:36:24;;;;;;;20.45;15.18;;;14.10;61.90;;;;;;5056271;28;20102;-63
2022/04/23 02:38:51;;;;;;;18.70;14.30;;;14.10;61.90;;;;;;5053474;28;20025;-64
2022/04/23 02:41:17;;;;;;;21.52;15.55;;;14.10;62.00;;;;;;5055932;28;20029;-63
2022/04/23 02:43:45;;;;;;;19.05;15.55;;;14.10;62.00;;;;;;5055153;28;20124;-63
2022/04/23 02:46:14;;;;;;;20.52;16.42;;;14.10;62.10;;;;;;5055018;28;20044;-63
2022/04/23 02:48:40;;;;;;;19.92;15.48;;;14.00;62.10;;;;;;5054884;28;20104;-63
2022/04/23 02:51:05;;;;;;;21.88;16.05;;;14.00;62.20;;;;;;5038658;28;20151;-63
2022/04/23 02:53:31;;;;;;;22.00;16.50;;;14.00;62.20;;;;;;5054556;28;20033;-63
2022/04/23 02:55:57;;;;;;;22.23;16.08;;;14.00;62.30;;;;;;5055937;28;20033;-63
2022/04/23 02:58:26;;;;;;;23.13;16.05;;;14.00;62.30;;;;;;5053951;28;20028;-63
2022/04/23 03:00:53;;;;;;;19.92;16.08;;;14.00;62.40;;;;;;5037497;28;20524;-63
2022/04/23 03:03:21;;;;;;;21.02;15.65;;;14.00;62.50;;;;;;5055518;28;20062;-63
2022/04/23 03:05:48;;;;;;;22.50;16.17;;;14.00;62.50;;;;;;5054774;28;20033;-63
2022/04/23 03:08:15;;;;;;;23.20;16.67;;;14.00;62.60;;;;;;5054484;28;20409;-63
2022/04/23 03:10:41;;;;;;;19.08;15.63;;;14.00;62.60;;;;;;5054683;28;20032;-63
2022/04/23 03:13:08;;;;;;;21.20;15.80;;;14.00;62.70;;;;;;5054389;28;20048;-63
2022/04/23 03:15:35;;;;;;;19.92;16.05;;;14.00;62.70;;;;;;5050425;28;20039;-64
2022/04/23 03:18:08;;;;;;;17.83;14.38;;;13.90;62.80;;;;;;5052246;28;20120;-63
2022/04/23 03:20:34;;;;;;;21.52;15.98;;;13.90;62.90;;;;;;5053388;28;20063;-64
2022/04/23 03:22:59;;;;;;;22.27;16.52;;;13.90;62.90;;;;;;5055137;28;20032;-64
2022/04/23 03:25:25;;;;;;;21.02;15.70;;;13.90;63.00;;;;;;5044359;28;20029;-63
2022/04/23 03:27:51;;;;;;;19.98;15.38;;;13.90;63.10;;;;;;5050786;28;20029;-64
2022/04/23 03:30:16;;;;;;;19.67;15.32;;;13.80;63.00;;;;;;5053471;28;20528;-63
2022/04/23 03:32:42;;;;;;;21.13;16.00;;;13.80;63.10;;;;;;5054821;28;20094;-63
2022/04/23 03:35:08;;;;;;;20.85;16.52;;;13.80;63.10;;;;;;5048614;28;20508;-63
2022/04/23 03:37:37;;;;;;;20.10;16.13;;;13.80;63.30;;;;;;5054700;28;20047;-63
2022/04/23 03:40:08;;;;;;;20.70;16.52;;;13.80;63.30;;;;;;5053008;28;20442;-63
2022/04/23 03:42:34;;;;;;;19.63;15.80;;;13.80;63.40;;;;;;5054322;28;20117;-63
2022/04/23 03:45:01;;;;;;;20.45;16.88;;;13.70;63.40;;;;;;5053370;28;20509;-63
2022/04/23 03:47:26;;;;;;;22.08;17.15;;;13.70;63.50;;;;;;5054388;28;20060;-63
2022/04/23 03:49:52;;;;;;;20.27;15.70;;;13.70;63.60;;;;;;5050736;28;20049;-64
2022/04/23 03:52:17;;;;;;;19.23;15.90;;;13.70;63.60;;;;;;5044375;28;20068;-63
2022/04/23 03:54:43;;;;;;;19.95;16.30;;;13.70;63.60;;;;;;5052235;28;20029;-63
2022/04/23 03:57:09;;;;;;;20.58;15.65;;;13.70;63.60;;;;;;5045209;28;20090;-63
2022/04/23 03:59:37;;;;;;;19.88;15.80;;;13.70;63.70;;;;;;5053286;28;20029;-63
2022/04/23 04:02:04;;;;;;;20.75;15.82;;;13.70;63.60;;;;;;5054945;28;20033;-63
2022/04/23 04:04:33;;;;;;;20.98;17.10;;;13.70;63.70;;;;;;5052554;28;20374;-63
2022/04/23 04:07:02;;;;;;;22.77;16.10;;;13.60;63.80;;;;;;5054425;28;20029;-63
2022/04/23 04:09:28;;;;;;;22.45;17.73;;;13.60;63.90;;;;;;5055169;28;20025;-64
2022/04/23 04:12:03;;;;;;;23.65;16.88;;;13.60;63.90;;;;;;5040782;28;20055;-63
2022/04/23 04:14:35;;;;;;;19.67;16.20;;;13.60;63.90;;;;;;5053956;28;20092;-63
2022/04/23 04:17:02;;;;;;;18.70;16.25;;;13.60;64.00;;;;;;5053297;28;20021;-63
2022/04/23 04:19:29;;;;;;;20.40;16.27;;;13.60;64.00;;;;;;5048263;28;20029;-63
2022/04/23 04:21:57;;;;;;;22.25;16.63;;;13.60;64.10;;;;;;5053333;28;20036;-63
2022/04/23 04:24:23;;;;;;;20.98;16.42;;;13.60;64.10;;;;;;5055235;28;20058;-63
2022/04/23 04:26:50;;;;;;;19.90;15.85;;;13.60;64.10;;;;;;5053103;28;20029;-63
2022/04/23 04:29:17;;;;;;;19.83;16.45;;;13.60;64.00;;;;;;5054348;28;20040;-63
2022/04/23 04:31:51;;;;;;;20.83;16.95;;;13.60;64.00;;;;;;5038597;28;20061;-63
2022/04/23 04:34:19;;;;;;;20.10;15.80;;;13.60;64.10;;;;;;5054489;28;20037;-64
2022/04/23 04:36:46;;;;;;;20.90;15.80;;;13.50;64.20;;;;;;5052289;28;20374;-63
2022/04/23 04:39:13;;;;;;;21.30;16.98;;;13.50;64.30;;;;;;5054096;28;20357;-63
2022/04/23 04:41:39;;;;;;;21.77;16.95;;;13.40;65.00;;;;;;5052352;28;20028;-63
2022/04/23 04:44:05;;;;;;;20.73;16.15;;;13.40;64.40;;;;;;5054170;28;20037;-63
2022/04/23 04:46:32;;;;;;;18.13;14.77;;;13.40;64.50;;;;;;5051351;28;20021;-63
2022/04/23 04:48:57;;;;;;;21.05;15.98;;;13.40;64.60;;;;;;5050583;28;20061;-63
2022/04/23 04:51:23;;;;;;;20.55;16.17;;;13.30;64.60;;;;;;5040269;28;20060;-63
2022/04/23 04:53:49;;;;;;;20.95;15.77;;;13.40;64.60;;;;;;5052881;28;20028;-63
2022/04/23 04:56:14;;;;;;;21.52;15.77;;;13.40;64.60;;;;;;5053408;28;20533;-64
2022/04/23 04:58:43;;;;;;;20.50;17.00;;;13.30;64.60;;;;;;5052120;28;20108;-63
2022/04/23 05:01:09;;;;;;;20.40;15.80;;;13.30;64.60;;;;;;5052519;28;20037;-63
2022/04/23 05:03:35;;;;;;;22.65;17.20;;;13.40;64.70;;;;;;5053174;28;20040;-63
2022/04/23 05:06:01;;;;;;;19.00;15.27;;;13.30;64.70;;;;;;5052397;28;20032;-63
2022/04/23 05:08:26;;;;;;;19.33;15.90;;;13.40;64.70;;;;;;5050550;28;20428;-63
2022/04/23 05:10:52;;;;;;;20.27;14.90;;;13.40;64.70;;;;;;5048687;28;20108;-63
2022/04/23 05:13:17;;;;;;;20.70;15.48;;;13.40;64.70;;;;;;5053002;28;20465;-63
2022/04/23 05:15:45;;;;;;;20.50;15.38;;;13.40;64.70;;;;;;5052757;28;20029;-63
2022/04/23 05:18:10;;;;;;;19.23;15.10;;;13.40;64.70;;;;;;5051638;28;20519;-63
2022/04/23 05:20:36;;;;;;;19.13;15.07;;;13.40;64.60;;;;;;5051475;28;20057;-63
2022/04/23 05:23:02;;;;;;;17.55;14.88;;;13.40;64.60;;;;;;5054074;28;20064;-63
2022/04/23 05:25:28;;;;;;;20.08;15.27;;;13.50;64.60;;;;;;5051290;28;20029;-63
2022/04/23 05:27:53;;;;;;;17.45;14.60;;;13.50;64.60;;;;;;5052672;28;20098;-63
2022/04/23 05:30:19;;;;;;;18.63;15.35;;;13.50;64.50;;;;;;5051061;28;20064;-64
2022/04/23 05:32:45;;;;;;;18.90;15.18;;;13.60;64.30;;;;;;5048131;28;20040;-63
2022/04/23 05:35:10;;;;;;;19.38;15.32;;;13.90;64.00;;;;;;5051776;28;20070;-63
2022/04/23 05:37:36;;;;;;;18.75;14.98;;;14.00;63.50;;;;;;5052635;28;20017;-64
2022/04/23 05:40:01;;;;;;;18.85;14.93;;;14.00;63.40;;;;;;5047239;28;20090;-64
2022/04/23 05:42:27;;;;;;;18.13;14.30;;;13.90;63.40;;;;;;5050927;28;20047;-64
2022/04/23 05:44:52;;;;;;;19.02;15.90;;;13.80;63.60;;;;;;5055414;28;20451;-63
2022/04/23 05:47:18;;;;;;;18.75;14.93;;;13.80;63.80;;;;;;5056245;28;20108;-63
2022/04/23 05:49:43;;;;;;;17.63;14.98;;;13.70;63.90;;;;;;5055154;28;20091;-63
2022/04/23 05:52:10;;;;;;;19.67;14.80;;;13.70;64.00;;;;;;5056532;28;20040;-63
2022/04/23 05:54:36;;;;;;;17.90;14.90;;;14.10;63.40;;;;;;5056476;28;20466;-63
2022/04/23 05:57:01;;;;;;;17.63;14.13;;;14.30;62.80;;;;;;5056844;28;20036;-63
2022/04/23 05:59:30;;;;;;;18.02;14.65;;;14.20;62.60;;;;;;5055316;28;20017;-63
2022/04/23 06:01:55;;;;;;;16.65;14.02;;;14.20;62.70;;;;;;5054950;28;20060;-63
2022/04/23 06:04:23;;;;;;;18.90;14.07;;;14.10;62.80;;;;;;5057482;28;20040;-63
2022/04/23 06:06:49;;;;;;;19.65;14.60;;;14.10;63.00;;;;;;5055750;28;20033;-63
2022/04/23 06:09:14;;;;;;;18.70;14.10;;;14.00;63.00;;;;;;5054985;28;20511;-63
2022/04/23 06:11:40;;;;;;;16.60;13.45;;;14.00;63.10;;;;;;5055841;28;20063;-63
2022/04/23 06:14:05;;;;;;;19.48;13.95;;;14.00;62.90;;;;;;5057127;28;20029;-63
2022/04/23 06:16:31;;;;;;;16.92;13.60;;;14.00;62.90;;;;;;5055387;28;20461;-64
2022/04/23 06:18:57;;;;;;;16.10;12.02;;;14.00;62.90;;;;;;5056290;28;20033;-64
2022/04/23 06:21:22;;;;;;;14.98;12.65;;;14.30;62.70;;;;;;5055656;28;20359;-64
2022/04/23 06:23:48;;;;;;;15.85;12.23;;;14.50;62.20;;;;;;5053955;28;20037;-63
2022/04/23 06:26:14;;;;;;;16.10;13.20;;;14.60;61.70;;;;;;5053837;28;20025;-64
2022/04/23 06:28:40;;;;;;;17.77;13.80;;;14.60;61.50;;;;;;5056023;28;20143;-64
2022/04/23 06:31:05;;;;;;;17.80;13.82;;;14.50;61.60;;;;;;5055306;28;20104;-64
2022/04/23 06:33:31;;;;;;;15.50;12.60;;;14.40;61.70;;;;;;5054904;28;20048;-64
2022/04/23 06:35:56;;;;;;;15.88;12.75;;;14.40;61.80;;;;;;5055262;28;20029;-64
2022/04/23 06:38:22;;;;;;;14.68;12.13;;;14.40;61.90;;;;;;5054365;28;20040;-63
2022/04/23 06:40:47;;;;;;;16.85;12.90;;;14.40;61.80;;;;;;5054781;28;20036;-64
2022/04/23 06:43:13;;;;;;;14.48;11.82;;;14.40;61.70;;;;;;5053131;28;20162;-64
2022/04/23 06:45:43;;;;;;;15.82;12.35;;;14.50;61.60;;;;;;5052282;28;20032;-64
2022/04/23 06:48:09;;;;;;;16.85;12.30;;;14.60;61.30;;;;;;5055234;28;20040;-63
2022/04/23 06:50:36;;;;;;;17.13;13.05;;;14.80;61.10;;;;;;5055473;28;20126;-64
2022/04/23 06:53:03;;;;;;;15.65;11.73;;;14.90;60.60;;;;;;5055295;28;20033;-64
2022/04/23 06:55:30;;;;;;;15.52;11.88;;;15.20;60.20;;;;;;5054012;28;20021;-64
2022/04/23 06:57:56;;;;;;;15.82;11.40;;;15.30;59.80;;;;;;5054862;28;20036;-63
2022/04/23 07:00:22;;;;;;;14.32;11.88;;;15.40;59.50;;;;;;5055260;28;20033;-64
2022/04/23 07:02:51;;;;;;;14.52;11.40;;;15.60;59.30;;;;;;5053800;28;20037;-63
2022/04/23 07:05:17;;;;;;;15.20;11.40;;;15.80;59.00;;;;;;5053522;28;20043;-63
2022/04/23 07:08:01;;;;;;;15.43;12.10;;;16.10;58.50;;;;;;5054763;28;20450;-63
2022/04/23 07:10:29;;;;;;;17.08;13.27;;;16.40;58.00;;;;;;5053669;28;20467;-64
2022/04/23 07:12:55;;;;;;;15.57;11.32;;;16.60;57.50;;;;;;5058373;28;20033;-63
2022/04/23 07:15:22;;;;;;;15.07;11.68;;;16.80;57.20;;;;;;5059279;28;20040;-63
2022/04/23 07:17:48;;;;;;;14.85;11.63;;;16.90;56.80;;;;;;5057028;28;20415;-64
2022/04/23 07:20:16;;;;;;;16.35;11.88;;;17.20;56.50;;;;;;5050975;28;20112;-64
2022/04/23 07:24:03;;;;;;;15.57;12.18;;;17.30;56.10;;;;;;5052739;28;20393;-64
2022/04/23 07:25:32;;;;;;;14.35;11.68;;;17.40;55.80;;;;;;5055741;28;20473;-64
2022/04/23 07:27:58;;;;;;;15.52;11.43;;;17.60;55.50;;;;;;5053420;28;20051;-64
2022/04/23 07:30:25;;;;;;;15.05;11.52;;;17.70;55.20;;;;;;5052979;28;20339;-64
2022/04/23 07:32:53;;;;;;;14.00;11.45;;;17.80;54.90;;;;;;5051439;28;20048;-65
2022/04/23 07:38:12;;;;;;;13.82;11.30;;;18.10;54.40;;;;;;5051610;28;20040;-64
2022/04/23 07:40:40;;;;;;;14.38;11.25;;;18.20;54.00;;;;;;5050774;28;20044;-65
2022/04/23 07:43:10;;;;;;;15.65;12.27;;;18.40;53.80;;;;;;5048455;28;20055;-65
2022/04/23 07:45:37;;;;;;;14.57;11.30;;;18.50;53.40;;;;;;5053217;28;20115;-64
2022/04/23 07:48:04;;;;;;;14.60;11.65;;;18.60;53.20;;;;;;5052056;28;20033;-64
2022/04/23 07:50:30;;;;;;;16.85;12.60;;;18.70;52.90;;;;;;5054688;28;20087;-64
2022/04/23 07:52:56;;;;;;;14.98;12.15;;;18.70;52.60;;;;;;5052472;28;20033;-64
2022/04/23 07:55:21;;;;;;;14.65;11.38;;;18.90;52.40;;;;;;5054760;28;20048;-64
2022/04/23 07:57:47;;;;;;;13.73;11.30;;;18.80;52.30;;;;;;5053810;28;20033;-64
2022/04/23 08:00:13;;;;;;;14.32;11.85;;;18.80;52.20;;;;;;5054218;28;20425;-64
2022/04/23 08:02:39;;;;;;;14.13;11.30;;;18.90;52.10;;;;;;5049676;28;20063;-64
2022/04/23 08:05:05;;;;;;;15.07;11.00;;;19.10;51.90;;;;;;5051721;28;20057;-65
2022/04/23 08:07:30;;;;;;;13.98;10.77;;;19.10;51.70;;;;;;5051888;28;20029;-66
2022/04/23 08:09:56;;;;;;;15.05;12.27;;;19.20;51.50;;;;;;5053620;28;20021;-65
2022/04/23 08:12:22;;;;;;;15.07;12.48;;;19.10;51.40;;;;;;5050294;28;20096;-64
2022/04/23 08:14:47;;;;;;;15.88;12.23;;;19.20;51.40;;;;;;5054193;28;20021;-64
2022/04/23 08:17:13;;;;;;;15.20;12.60;;;19.20;51.10;;;;;;5051881;28;20037;-64
2022/04/23 08:19:39;;;;;;;15.85;12.18;;;19.30;51.00;;;;;;5054152;28;20021;-64
2022/04/23 08:22:04;;;;;;;15.38;12.38;;;19.30;50.90;;;;;;5051918;28;20104;-65
2022/04/23 08:24:33;;;;;;;17.52;13.50;;;19.50;50.80;;;;;;5054518;28;20037;-63
2022/04/23 08:26:58;;;;;;;17.33;13.50;;;19.50;50.50;;;;;;5053145;28;20394;-64
2022/04/23 08:32:08;;;;;;;16.88;13.10;;;19.70;50.20;;;;;;5051285;28;20057;-65
2022/04/23 08:34:34;;;;;;;15.68;12.63;;;19.90;50.00;;;;;;5054003;28;20039;-64
2022/04/23 08:37:00;;;;;;;14.55;12.50;;;20.00;49.70;;;;;;5053929;28;20025;-64
2022/04/23 08:39:26;;;;;;;16.25;12.10;;;20.10;49.50;;;;;;5054478;28;20024;-65
2022/04/23 08:41:52;;;;;;;14.63;11.45;;;20.20;49.30;;;;;;5052439;28;20040;-64
2022/04/23 08:44:21;;;;;;;17.77;13.65;;;20.30;49.00;;;;;;5053600;28;20032;-64
2022/04/23 08:46:48;;;;;;;16.52;13.00;;;20.30;48.70;;;;;;5035446;28;20038;-64
2022/04/23 08:49:16;;;;;;;16.63;13.45;;;20.10;48.70;;;;;;5054827;28;20052;-64
2022/04/23 08:51:53;;;;;;;16.88;13.70;;;20.10;48.80;;;;;;5053628;28;20102;-64
2022/04/23 08:54:19;;;;;;;16.83;13.60;;;20.00;48.70;;;;;;5053411;28;20025;-65
2022/04/23 08:56:46;;;;;;;16.92;13.90;;;20.10;48.70;;;;;;5052250;28;20057;-64
2022/04/23 08:59:14;;;;;;;17.92;14.32;;;20.00;48.50;;;;;;5051537;28;20087;-64
2022/04/23 09:01:39;;;;;;;18.42;14.52;;;19.80;48.60;;;;;;5051686;28;20324;-65
2022/04/23 09:04:07;;;;;;;19.73;14.65;;;19.80;48.80;;;;;;5051753;28;20036;-66
2022/04/23 09:06:34;;;;;;;16.17;13.63;;;19.70;48.90;;;;;;5051278;28;20064;-65
2022/04/23 09:09:07;;;;;;;15.02;12.10;;;19.80;48.80;;;;;;5050463;28;20036;-66
2022/04/23 09:11:36;;;;;;;17.77;13.98;;;19.90;48.50;;;;;;5051950;28;20062;-66
2022/04/23 09:14:06;;;;;;;19.58;14.30;;;20.10;48.20;;;;;;5051630;28;20416;-65
2022/04/23 09:25:10;;;;;;;;;;;20.30;47.80;;;;;;5056779;28;20021;-65
2022/04/23 09:27:37;;;;;;;15.30;10.98;;;20.40;47.80;;;;;;5055047;28;19916;-65
2022/04/23 09:30:07;;;;;;;17.70;12.55;;;20.60;47.60;;;;;;5055341;28;20044;-65
2022/04/23 09:32:33;;;;;;;18.05;14.57;;;20.80;47.30;;;;;;5056038;28;20045;-65
2022/04/23 09:35:10;;;;;;;16.10;12.70;;;21.10;46.60;;;;;;5050622;28;20028;-65
2022/04/23 09:40:22;;;;;;;16.90;12.98;;;21.00;46.60;;;;;;5055357;28;20041;-65
2022/04/23 09:43:01;;;;;;;17.80;13.65;;;20.90;46.70;;;;;;5053006;28;20029;-64
2022/04/23 09:45:31;;;;;;;18.40;13.23;;;21.10;46.40;;;;;;5055107;28;20028;-64
2022/04/23 09:48:14;;;;;;;16.08;12.10;;;21.20;46.20;;;;;;5054019;28;20021;-64
2022/04/23 09:50:41;;;;;;;15.07;12.70;;;21.20;46.00;;;;;;5054179;28;20036;-64
2022/04/23 09:53:14;;;;;;;15.63;12.68;;;21.30;45.90;;;;;;5056131;28;20029;-64
2022/04/23 09:55:39;;;;;;;15.38;12.40;;;21.30;45.70;;;;;;5051361;28;20025;-64
2022/04/23 09:58:07;;;;;;;15.43;11.60;;;21.30;45.60;;;;;;5055268;28;20149;-64
2022/04/23 10:00:36;;;;;;;16.13;12.95;;;21.20;45.50;;;;;;5054573;28;20021;-64
2022/04/23 10:03:07;;;;;;;17.52;13.07;;;21.10;45.50;;;;;;5056096;28;20044;-64
2022/04/23 10:05:39;;;;;;;15.95;12.27;;;21.00;45.60;;;;;;5054235;28;20044;-64
2022/04/23 10:08:15;;;;;;;17.13;13.25;;;20.80;45.90;;;;;;5055666;28;20139;-64
2022/04/23 10:10:53;;;;;;;18.75;12.65;;;20.60;46.00;;;;;;5054350;28;20021;-64
2022/04/23 10:13:21;;;;;;;16.73;13.18;;;20.60;46.10;;;;;;5055682;28;20031;-64
2022/04/23 10:15:48;;;;;;;15.98;12.55;;;20.60;46.10;;;;;;5054633;28;20442;-64
2022/04/23 10:18:15;;;;;;;15.68;12.27;;;20.60;46.10;;;;;;5055662;28;20017;-64
2022/04/23 10:20:52;;;;;;;17.10;13.20;;;20.70;46.00;;;;;;5050778;28;20040;-64
2022/04/23 10:23:35;;;;;;;15.60;11.73;;;21.00;45.60;;;;;;5054205;28;20028;-65
2022/04/23 10:26:33;;;;;;;17.20;11.90;;;21.20;45.30;;;;;;5054771;28;20025;-65
2022/04/23 10:29:00;;;;;;;15.85;11.73;;;21.40;44.90;;;;;;5052448;28;20044;-64
2022/04/23 10:31:25;;;;;;;16.45;12.90;;;21.50;44.60;;;;;;5055724;28;20460;-65
2022/04/23 10:33:54;;;;;;;16.55;10.95;;;21.50;44.60;;;;;;5053957;28;20126;-66
2022/04/23 10:36:21;;;;;;;15.40;12.15;;;21.60;44.50;;;;;;5055777;28;20039;-65
2022/04/23 10:38:51;;;;;;;14.32;11.35;;;21.70;44.30;;;;;;5053400;28;20116;-65
2022/04/23 10:41:22;;;;;;;16.23;12.27;;;21.80;44.20;;;;;;5053437;28;20032;-65
2022/04/23 10:43:50;;;;;;;15.65;12.05;;;21.80;44.00;;;;;;5054926;28;20031;-66
2022/04/23 10:46:37;;;;;;;18.40;13.60;;;21.70;44.00;;;;;;5053103;28;20036;-65
2022/04/23 10:49:15;;;;;;;18.35;12.95;;;21.60;44.10;;;;;;5057379;28;20392;-65
2022/04/23 10:51:46;;;;;;;15.43;12.88;;;21.30;44.40;;;;;;5054193;28;20060;-65
2022/04/23 10:54:12;;;;;;;17.55;13.38;;;21.00;44.70;;;;;;5053565;28;20071;-66
2022/04/23 10:56:37;;;;;;;17.95;14.05;;;20.90;45.10;;;;;;5055224;28;20385;-65
2022/04/23 10:59:03;;;;;;;17.33;11.63;;;21.10;45.00;;;;;;5057590;28;20044;-66
2022/04/23 11:01:30;;;;;;;17.55;12.95;;;21.40;44.70;;;;;;5058301;28;20072;-65
2022/04/23 11:03:59;;;;;;;18.30;13.07;;;21.80;44.30;;;;;;5056466;28;20445;-65
2022/04/23 11:12:22;;;;;;;17.17;12.95;;;21.80;43.80;;;;;;5054600;28;20095;-65
2022/04/23 11:14:56;;;;;;;20.73;13.25;;;21.50;44.30;;;;;;5054440;28;20021;-65
2022/04/23 11:17:23;;;;;;;21.27;13.80;;;21.20;44.50;;;;;;5054139;28;20432;-65
2022/04/23 11:19:55;;;;;;;19.77;14.88;;;21.20;44.60;;;;;;5055754;28;20116;-65
2022/04/23 11:22:22;;;;;;;18.90;14.73;;;21.30;44.40;;;;;;5047394;28;20040;-65
2022/04/23 11:24:54;;;;;;;19.45;14.60;;;21.40;44.30;;;;;;5034832;28;20512;-65
2022/04/23 11:27:32;;;;;;;17.42;14.18;;;21.40;44.00;;;;;;5042557;28;20024;-65
2022/04/23 11:29:59;;;;;;;17.08;13.13;;;21.60;43.70;;;;;;5053710;28;20037;-65
2022/04/23 11:32:26;;;;;;;20.30;13.80;;;21.80;43.50;;;;;;5050041;28;20473;-65
2022/04/23 11:35:06;;;;;;;18.83;14.25;;;21.70;43.40;;;;;;5053722;28;20039;-66
2022/04/23 11:37:36;;;;;;;17.52;13.55;;;21.70;43.20;;;;;;5054142;28;20082;-65
2022/04/23 11:40:05;;;;;;;19.80;14.85;;;21.80;43.20;;;;;;5054312;28;20354;-65
2022/04/23 11:42:42;;;;;;;17.85;13.27;;;21.90;43.20;;;;;;5055249;28;20095;-65
2022/04/23 11:45:10;;;;;;;17.80;13.80;;;21.90;43.20;;;;;;5053478;28;20091;-66
2022/04/23 11:47:35;;;;;;;16.35;11.98;;;22.00;43.00;;;;;;5032682;28;20108;-65
2022/04/23 11:50:17;;;;;;;19.88;15.00;;;22.00;43.10;;;;;;5041405;28;20553;-65
2022/04/23 11:52:56;;;;;;;18.27;14.10;;;21.90;43.00;;;;;;5048201;28;20037;-65
2022/04/23 11:55:24;;;;;;;16.92;13.57;;;21.80;43.00;;;;;;5052109;28;20473;-65
2022/04/23 11:58:00;;;;;;;18.90;13.98;;;21.80;42.90;;;;;;5051577;28;20492;-66
2022/04/23 12:00:27;;;;;;;18.10;13.15;;;22.00;42.60;;;;;;5054245;28;20053;-66
2022/04/23 12:02:53;;;;;;;20.33;15.00;;;21.90;42.60;;;;;;5046328;28;20048;-65
2022/04/23 12:05:31;;;;;;;19.75;14.25;;;21.80;42.70;;;;;;5048461;28;20086;-65
2022/04/23 12:07:58;;;;;;;18.92;14.55;;;21.50;42.80;;;;;;5049964;28;20031;-66
2022/04/23 12:10:28;;;;;;;17.25;13.70;;;21.30;43.10;;;;;;5054479;28;20033;-65
2022/04/23 12:13:06;;;;;;;17.33;13.70;;;21.30;43.10;;;;;;5045823;28;20397;-65
2022/04/23 12:15:32;;;;;;;14.90;11.70;;;21.40;43.10;;;;;;5054636;28;20481;-65
2022/04/23 12:17:58;;;;;;;16.35;13.15;;;21.60;43.10;;;;;;5051756;28;20064;-65
2022/04/23 12:20:26;;;;;;;16.30;13.07;;;21.70;42.90;;;;;;5053474;28;20035;-65
2022/04/23 12:22:59;;;;;;;18.40;13.75;;;21.90;42.50;;;;;;5053190;28;20021;-65
2022/04/23 12:25:29;;;;;;;19.13;13.07;;;21.90;42.20;;;;;;5053360;28;20033;-65
2022/04/23 12:27:58;;;;;;;17.27;13.05;;;21.80;42.20;;;;;;5052876;28;20415;-65
2022/04/23 12:41:55;;;;;;;;;;;21.50;42.20;;;;;;5055353;28;20051;-65
2022/04/23 12:44:22;;;;;;;14.77;11.10;;;21.30;42.50;;;;;;5054844;28;19908;-65
2022/04/23 12:46:59;;;;;;;16.70;11.48;;;21.20;42.70;;;;;;5054944;28;20022;-65
2022/04/23 12:49:50;;;;;;;19.15;12.68;;;21.10;42.60;;;;;;5053786;28;20118;-65
2022/04/23 12:52:19;;;;;;;16.75;13.15;;;21.10;42.60;;;;;;5056199;28;20337;-65
2022/04/23 12:55:09;;;;;;;18.48;13.20;;;21.10;42.70;;;;;;5059386;28;20090;-65
2022/04/23 12:57:35;;;;;;;17.57;12.67;;;21.10;42.60;;;;;;5059590;28;20025;-65
2022/04/23 13:00:01;;;;;;;16.88;11.85;;;21.10;42.70;;;;;;5058826;28;20021;-65
2022/04/23 13:02:36;;;;;;;14.88;11.23;;;21.10;42.60;;;;;;5058557;28;20029;-65
2022/04/23 13:05:03;;;;;;;17.45;12.32;;;21.10;42.50;;;;;;5058652;28;20438;-65
2022/04/23 13:10:13;;;;;;;16.45;12.52;;;21.00;42.30;;;;;;5058359;28;20044;-65
2022/04/23 13:12:39;;;;;;;14.55;11.45;;;21.00;42.40;;;;;;5058516;28;20025;-65